Darstellungsparameter: Aktuell verwendete Einstellungen:
Skalierung der Graphiken ... ?
xyx+y,   Skalierungsfaktor:      Skalierung: Modus: x, Faktor: 1
Darstellungszeitraum ... ?
Vom - - bis: - -   Zeitraum: 22.01.2009 - 24.01.2009
Min/Max/Avg-Anzeige ... ?
Zeige MMA aktuell
Zeige MMA Monat
Zeige MMA alles
Zeige --A aktuell
Zeige --A Monat
Zeige --A alles
Keine MMA-Anzeige
MMA:
Average (ber die Originaldaten)
MMA-Basis: 22.01.2009 - 24.01.2009
Quicknavigation für Darstellung... ?
Tage:      1T, 2T, 3T, 5T -1T -2T -3T -5T +1T +2T +3T +5T
Wochen: 1W, 2W, 3W -1W -2W -3W +1W +2W +3W
Monate: 1M, 3M, 6M -1M -3M -6M +1M +3M +6M
Jahre:    1J, 3J, 5J, 10J -1J -3J -5J -10J +1J +3J +5J +10J
Nutze für die Darstellung ... ?
Originaldaten oder Mittelwerte auf ...
Stundenbasis Tagesbasis Wochenbasis
Monatsbasis Jahresbasis      Datenbasis: Original-Daten
Darstellen als:
Statistik (Auto) Statistik J:M      Darstellung:
Zur Graphik,    zurück zur Übersicht aller Sensoren.
 
Tabellarische Datenbersicht: ?
 
Sensor: Nr:Datum:Temp:Abs-Feuchte:Windchill:Wind:
Aussen-T/F 1 22-01-2009 00:02:01 1 C 4.26 g/m*3 1 C 0 km/h
2 22-01-2009 00:14:01 0.7 C 4.22 g/m*3 0.7 C 0 km/h
3 22-01-2009 00:26:01 0.4 C 4.18 g/m*3 0.4 C 0 km/h
4 22-01-2009 00:38:02 0.4 C 4.23 g/m*3 0.4 C 0 km/h
5 22-01-2009 00:50:01 0.5 C 4.26 g/m*3 0.5 C 0 km/h
6 22-01-2009 01:02:02 0.3 C 4.2 g/m*3 0.3 C 0 km/h
7 22-01-2009 01:14:02 0.3 C 4.2 g/m*3 0.3 C 0 km/h
8 22-01-2009 01:26:01 0.2 C 4.22 g/m*3 0.2 C 0 km/h
9 22-01-2009 01:38:01 0.2 C 4.22 g/m*3 0.2 C 0 km/h
10 22-01-2009 01:50:01 0.6 C 4.39 g/m*3 0.6 C 0 km/h
11 22-01-2009 02:02:01 1 C 4.46 g/m*3 1 C 0 km/h
12 22-01-2009 02:14:02 1.3 C 4.45 g/m*3 1.3 C 0 km/h
13 22-01-2009 02:26:01 1.6 C 4.33 g/m*3 1.6 C 0 km/h
14 22-01-2009 02:38:01 1.6 C 4.22 g/m*3 1.6 C 0 km/h
15 22-01-2009 02:50:35 1.3 C 4.08 g/m*3 1.3 C 0 km/h
16 22-01-2009 03:02:35 1.2 C 4.05 g/m*3 1.2 C 0 km/h
17 22-01-2009 03:14:35 1.1 C 4.08 g/m*3 1.1 C 0 km/h
18 22-01-2009 03:26:35 0.9 C 4.02 g/m*3 0.9 C 0 km/h
19 22-01-2009 03:38:35 0.8 C 4.04 g/m*3 0.8 C 0 km/h
20 22-01-2009 03:50:35 0.8 C 4.04 g/m*3 0.8 C 0 km/h
21 22-01-2009 04:02:35 0.6 C 3.99 g/m*3 0.6 C 0 km/h
22 22-01-2009 04:14:34 0.5 C 3.96 g/m*3 0.5 C 0 km/h
23 22-01-2009 04:26:34 0.5 C 4.01 g/m*3 0.5 C 0 km/h
24 22-01-2009 04:38:35 0.5 C 4.01 g/m*3 0.5 C 0 km/h
25 22-01-2009 04:50:35 0.4 C 4.03 g/m*3 0.4 C 0 km/h
Sensor: Nr:Datum:Temp:Abs-Feuchte:Windchill:Wind:
Aussen-T/F 26 22-01-2009 05:02:34 0.4 C 4.03 g/m*3 0.4 C 0 km/h
27 22-01-2009 05:14:34 0.6 C 4.09 g/m*3 0.6 C 0 km/h
28 22-01-2009 05:26:35 0.5 C 4.06 g/m*3 0.5 C 0 km/h
29 22-01-2009 05:38:34 0.2 C 3.98 g/m*3 0.2 C 0 km/h
30 22-01-2009 05:50:34 -0.2 C 3.87 g/m*3 -0.2 C 0 km/h
31 22-01-2009 06:02:34 -0.2 C 3.92 g/m*3 -0.2 C 0 km/h
32 22-01-2009 06:14:34 -0.2 C 3.97 g/m*3 -0.2 C 0 km/h
33 22-01-2009 06:26:34 -0.5 C 3.88 g/m*3 -0.5 C 0 km/h
34 22-01-2009 06:38:33 -0.5 C 3.88 g/m*3 -0.5 C 0 km/h
35 22-01-2009 06:50:34 -0.3 C 4.03 g/m*3 -0.3 C 0 km/h
36 22-01-2009 07:02:33 -0.3 C 4.03 g/m*3 -0.3 C 0 km/h
37 22-01-2009 07:14:33 -0.4 C 4.01 g/m*3 -0.4 C 0 km/h
38 22-01-2009 07:26:33 -0.6 C 3.95 g/m*3 -0.6 C 0 km/h
39 22-01-2009 07:38:33 -0.5 C 4.03 g/m*3 -0.5 C 0 km/h
40 22-01-2009 07:50:33 -0.6 C 4 g/m*3 -0.6 C 0 km/h
41 22-01-2009 08:02:32 -0.6 C 4.04 g/m*3 -0.6 C 0 km/h
42 22-01-2009 08:14:33 -0.6 C 4.04 g/m*3 -0.6 C 0 km/h
43 22-01-2009 08:26:33 -0.4 C 4.15 g/m*3 -0.4 C 0 km/h
44 22-01-2009 08:38:32 -0.4 C 4.15 g/m*3 -0.4 C 0 km/h
45 22-01-2009 08:50:32 -0.3 C 4.18 g/m*3 -0.3 C 0 km/h
46 22-01-2009 09:02:33 0 C 4.26 g/m*3 0 C 0 km/h
47 22-01-2009 09:14:32 0.2 C 4.37 g/m*3 0.2 C 0 km/h
48 22-01-2009 09:26:32 0.3 C 4.35 g/m*3 0.3 C 0 km/h
49 22-01-2009 09:38:32 0.3 C 4.35 g/m*3 0.3 C 0 km/h
50 22-01-2009 09:50:32 0.5 C 4.41 g/m*3 0.5 C 0 km/h
Sensor: Nr:Datum:Temp:Abs-Feuchte:Windchill:Wind:
Aussen-T/F 51 22-01-2009 10:02:32 1.5 C 4.51 g/m*3 1.5 C 0 km/h
52 22-01-2009 10:14:31 1.9 C 4.36 g/m*3 1.9 C 0 km/h
53 22-01-2009 10:26:31 2.6 C 4.17 g/m*3 2.6 C 0 km/h
54 22-01-2009 10:38:31 2.9 C 4.02 g/m*3 2.9 C 0 km/h
55 22-01-2009 10:50:31 3.1 C 3.89 g/m*3 3.1 C 0 km/h
56 22-01-2009 11:02:31 3.2 C 3.86 g/m*3 3.2 C 0 km/h
57 22-01-2009 11:14:30 3.5 C 3.81 g/m*3 3.5 C 0 km/h
58 22-01-2009 11:26:30 3.9 C 3.85 g/m*3 3.9 C 0 km/h
59 22-01-2009 11:38:31 4.1 C 3.71 g/m*3 4.1 C 0 km/h
60 22-01-2009 11:50:30 4.2 C 3.74 g/m*3 4.2 C 0 km/h
61 22-01-2009 12:02:30 4.1 C 3.71 g/m*3 4.1 C 0 km/h
62 22-01-2009 12:14:31 4.3 C 3.83 g/m*3 4.3 C 0 km/h
63 22-01-2009 12:26:31 4.7 C 3.66 g/m*3 4.7 C 0 km/h
64 22-01-2009 12:38:30 4.9 C 3.71 g/m*3 4.9 C 0 km/h
65 22-01-2009 12:50:30 5.3 C 3.53 g/m*3 5.3 C 0 km/h
66 22-01-2009 13:02:30 5.6 C 3.61 g/m*3 5.6 C 0 km/h
67 22-01-2009 13:14:30 5.5 C 3.37 g/m*3 5.5 C 0 km/h
68 22-01-2009 13:26:30 5.6 C 3.39 g/m*3 5.6 C 0 km/h
69 22-01-2009 13:38:29 5.6 C 3.39 g/m*3 5.6 C 0 km/h
70 22-01-2009 13:50:30 5.8 C 3.37 g/m*3 5.8 C 0 km/h
71 22-01-2009 14:02:29 6 C 3.34 g/m*3 6 C 0 km/h
72 22-01-2009 14:14:29 6.1 C 3.36 g/m*3 6.1 C 0 km/h
73 22-01-2009 14:26:29 6.3 C 3.41 g/m*3 6.3 C 0 km/h
74 22-01-2009 14:38:29 6.7 C 3.42 g/m*3 6.7 C 0 km/h
75 22-01-2009 14:50:29 7 C 3.18 g/m*3 7 C 0 km/h
Sensor: Nr:Datum:Temp:Abs-Feuchte:Windchill:Wind:
Aussen-T/F 76 22-01-2009 15:02:29 6.8 C 3.06 g/m*3 6.8 C 0 km/h
77 22-01-2009 15:14:28 6.4 C 3.05 g/m*3 6.4 C 0 km/h
78 22-01-2009 15:26:28 6.2 C 3.09 g/m*3 6.2 C 0 km/h
79 22-01-2009 15:38:29 6.2 C 3.09 g/m*3 6.2 C 0 km/h
80 22-01-2009 15:50:28 6 C 2.98 g/m*3 6 C 0 km/h
81 22-01-2009 16:02:28 5.9 C 3.1 g/m*3 5.9 C 0 km/h
82 22-01-2009 16:14:28 5.7 C 3.06 g/m*3 5.7 C 0 km/h
83 22-01-2009 16:26:28 5.6 C 3.11 g/m*3 5.6 C 0 km/h
84 22-01-2009 16:38:28 5.5 C 3.02 g/m*3 5.5 C 0 km/h
85 22-01-2009 16:50:27 5.3 C 3.12 g/m*3 5.3 C 0 km/h
86 22-01-2009 17:02:28 5.2 C 3.03 g/m*3 5.2 C 0 km/h
87 22-01-2009 17:14:02 5.3 C 2.91 g/m*3 5.3 C 0 km/h
88 22-01-2009 17:26:02 5.3 C 2.98 g/m*3 5.3 C 0 km/h
89 22-01-2009 17:38:01 5.2 C 3.1 g/m*3 5.2 C 0 km/h
90 22-01-2009 17:50:01 5.2 C 2.96 g/m*3 5.2 C 0 km/h
91 22-01-2009 18:02:01 5.2 C 3.03 g/m*3 5.2 C 0 km/h
92 22-01-2009 18:14:01 5.2 C 3.1 g/m*3 5.2 C 0 km/h
93 22-01-2009 18:26:01 5.1 C 3.15 g/m*3 5.1 C 0 km/h
94 22-01-2009 18:38:01 5.2 C 3.24 g/m*3 5.2 C 0 km/h
95 22-01-2009 18:50:01 5 C 3.26 g/m*3 5 C 0 km/h
96 22-01-2009 19:02:01 5 C 3.33 g/m*3 5 C 0 km/h
97 22-01-2009 19:14:01 5 C 3.4 g/m*3 5 C 0 km/h
98 22-01-2009 19:26:00 5 C 3.6 g/m*3 5 C 0 km/h
99 22-01-2009 19:38:01 4.9 C 3.85 g/m*3 4.9 C 0 km/h
100 22-01-2009 19:50:00 4.8 C 3.96 g/m*3 4.8 C 0 km/h
Sensor: Nr:Datum:Temp:Abs-Feuchte:Windchill:Wind:
Aussen-T/F 101 22-01-2009 20:02:00 4.7 C 4 g/m*3 4.7 C 0 km/h
102 22-01-2009 20:14:01 4.6 C 4.1 g/m*3 4.6 C 0 km/h
103 22-01-2009 20:26:00 4.5 C 4.14 g/m*3 4.5 C 0 km/h
104 22-01-2009 20:38:00 4.4 C 4.24 g/m*3 4.4 C 0 km/h
105 22-01-2009 20:50:00 4.1 C 4.35 g/m*3 4.1 C 0 km/h
106 22-01-2009 21:02:00 3.8 C 4.45 g/m*3 3.8 C 0 km/h
107 22-01-2009 21:14:00 3.6 C 4.52 g/m*3 3.6 C 0 km/h
108 22-01-2009 21:26:59 3.5 C 4.67 g/m*3 3.5 C 0 km/h
109 22-01-2009 21:38:59 3.3 C 4.67 g/m*3 3.3 C 0 km/h
110 22-01-2009 21:50:59 3.2 C 4.7 g/m*3 3.2 C 0 km/h
111 22-01-2009 22:02:59 3.2 C 4.82 g/m*3 3.2 C 0 km/h
112 22-01-2009 22:14:58 3.1 C 4.79 g/m*3 3.1 C 0 km/h
113 22-01-2009 22:26:58 3.1 C 4.79 g/m*3 3.1 C 0 km/h
114 22-01-2009 22:38:59 3.1 C 4.85 g/m*3 3.1 C 0 km/h
115 22-01-2009 22:50:58 3.2 C 4.88 g/m*3 3.2 C 0 km/h
116 22-01-2009 23:02:58 3.2 C 4.94 g/m*3 3.2 C 0 km/h
117 22-01-2009 23:14:59 3.4 C 4.95 g/m*3 3.4 C 0 km/h
118 22-01-2009 23:26:59 3.6 C 4.83 g/m*3 3.6 C 0 km/h
119 22-01-2009 23:38:58 3.8 C 4.77 g/m*3 3.8 C 0 km/h
120 22-01-2009 23:50:58 3.9 C 4.74 g/m*3 3.9 C 0 km/h
121 23-01-2009 00:02:58 4 C 4.7 g/m*3 4 C 0 km/h
122 23-01-2009 00:14:58 4 C 4.7 g/m*3 4 C 0 km/h
123 23-01-2009 00:26:58 4 C 4.7 g/m*3 4 C 0 km/h
124 23-01-2009 00:38:57 4 C 4.7 g/m*3 4 C 0 km/h
125 23-01-2009 00:50:58 4 C 4.7 g/m*3 4 C 0 km/h
Sensor: Nr:Datum:Temp:Abs-Feuchte:Windchill:Wind:
Aussen-T/F 126 23-01-2009 01:02:57 4 C 4.7 g/m*3 4 C 0 km/h
127 23-01-2009 01:14:57 4 C 4.77 g/m*3 4 C 0 km/h
128 23-01-2009 01:26:57 4 C 4.77 g/m*3 4 C 0 km/h
129 23-01-2009 01:38:58 3.9 C 4.8 g/m*3 3.9 C 0 km/h
130 23-01-2009 01:50:57 3.8 C 4.77 g/m*3 3.8 C 0 km/h
131 23-01-2009 02:02:57 3.7 C 4.74 g/m*3 3.7 C 0 km/h
132 23-01-2009 02:14:56 3.8 C 4.77 g/m*3 3.8 C 0 km/h
133 23-01-2009 02:26:56 3.8 C 4.77 g/m*3 3.8 C 0 km/h
134 23-01-2009 02:38:57 3.6 C 4.7 g/m*3 3.6 C 0 km/h
135 23-01-2009 02:51:58 3.7 C 4.74 g/m*3 3.7 C 0 km/h
136 23-01-2009 03:03:58 3.7 C 4.74 g/m*3 3.7 C 0 km/h
137 23-01-2009 03:15:58 3.9 C 4.8 g/m*3 3.9 C 0 km/h
138 23-01-2009 03:27:58 3.9 C 4.8 g/m*3 3.9 C 0 km/h
139 23-01-2009 03:39:57 3.9 C 4.8 g/m*3 3.9 C 0 km/h
140 23-01-2009 03:51:57 3.9 C 4.8 g/m*3 3.9 C 0 km/h
141 23-01-2009 04:03:58 3.8 C 4.83 g/m*3 3.8 C 0 km/h
142 23-01-2009 04:15:57 3.8 C 4.83 g/m*3 3.8 C 0 km/h
143 23-01-2009 04:27:57 3.7 C 4.8 g/m*3 3.7 C 0 km/h
144 23-01-2009 04:39:57 3.7 C 4.86 g/m*3 3.7 C 0 km/h
145 23-01-2009 04:51:57 3.7 C 4.86 g/m*3 3.7 C 0 km/h
146 23-01-2009 05:03:57 3.7 C 4.92 g/m*3 3.7 C 0 km/h
147 23-01-2009 05:15:56 3.8 C 4.96 g/m*3 3.8 C 0 km/h
148 23-01-2009 05:27:56 3.8 C 4.96 g/m*3 3.8 C 0 km/h
149 23-01-2009 05:39:56 3.8 C 4.96 g/m*3 3.8 C 0 km/h
150 23-01-2009 05:51:56 3.8 C 5.02 g/m*3 3.8 C 0 km/h
Sensor: Nr:Datum:Temp:Abs-Feuchte:Windchill:Wind:
Aussen-T/F 151 23-01-2009 06:03:57 3.9 C 4.93 g/m*3 3.9 C 0 km/h
152 23-01-2009 06:15:56 3.7 C 4.8 g/m*3 3.7 C 0 km/h
153 23-01-2009 06:27:56 3.4 C 4.76 g/m*3 3.4 C 0 km/h
154 23-01-2009 06:39:56 3.1 C 4.73 g/m*3 3.1 C 0 km/h
155 23-01-2009 06:51:56 2.9 C 4.9 g/m*3 2.9 C 0 km/h
156 23-01-2009 07:03:56 2.7 C 4.95 g/m*3 2.7 C 0 km/h
157 23-01-2009 07:15:55 2.5 C 4.94 g/m*3 2.5 C 0 km/h
158 23-01-2009 07:27:55 2.5 C 5 g/m*3 2.5 C 0 km/h
159 23-01-2009 07:39:55 2.4 C 4.97 g/m*3 2.4 C 0 km/h
160 23-01-2009 07:51:55 2.5 C 5.06 g/m*3 2.5 C 0 km/h
161 23-01-2009 08:03:55 2.7 C 5.13 g/m*3 2.7 C 0 km/h
162 23-01-2009 08:15:54 2.7 C 5.13 g/m*3 2.7 C 0 km/h
163 23-01-2009 08:27:54 2.7 C 5.19 g/m*3 2.7 C 0 km/h
164 23-01-2009 08:39:55 2.9 C 5.26 g/m*3 2.9 C 0 km/h
165 23-01-2009 08:51:54 2.9 C 5.26 g/m*3 2.9 C 0 km/h
166 23-01-2009 09:03:54 2.9 C 5.32 g/m*3 2.9 C 0 km/h
167 23-01-2009 09:15:55 2.9 C 5.32 g/m*3 2.9 C 0 km/h
168 23-01-2009 09:27:55 3 C 5.29 g/m*3 3 C 0 km/h
169 23-01-2009 09:39:54 3 C 5.35 g/m*3 3 C 0 km/h
170 23-01-2009 09:51:54 3 C 5.35 g/m*3 3 C 0 km/h
171 23-01-2009 10:03:54 3.1 C 5.39 g/m*3 3.1 C 0 km/h
172 23-01-2009 10:15:54 3.1 C 5.39 g/m*3 3.1 C 0 km/h
173 23-01-2009 10:27:54 3.4 C 5.5 g/m*3 3.4 C 0 km/h
174 23-01-2009 10:39:53 3.5 C 5.53 g/m*3 3.5 C 0 km/h
175 23-01-2009 10:51:54 3.4 C 5.5 g/m*3 3.4 C 0 km/h
Sensor: Nr:Datum:Temp:Abs-Feuchte:Windchill:Wind:
Aussen-T/F 176 23-01-2009 11:03:54 3.6 C 5.63 g/m*3 3.6 C 0 km/h
177 23-01-2009 11:15:53 4 C 5.72 g/m*3 4 C 0 km/h
178 23-01-2009 11:27:53 4.2 C 5.73 g/m*3 4.2 C 0 km/h
179 23-01-2009 11:39:53 4.1 C 5.7 g/m*3 4.1 C 0 km/h
180 23-01-2009 11:51:53 4.2 C 5.8 g/m*3 4.2 C 0 km/h
181 23-01-2009 12:03:53 4.4 C 5.94 g/m*3 4.4 C 0 km/h
182 23-01-2009 12:15:52 4.6 C 6.02 g/m*3 4.6 C 0 km/h
183 23-01-2009 12:27:52 5.2 C 6.27 g/m*3 5.2 C 0 km/h
184 23-01-2009 12:39:53 5.4 C 6.35 g/m*3 5.4 C 0 km/h
185 23-01-2009 12:51:52 5.5 C 6.39 g/m*3 5.5 C 0 km/h
186 23-01-2009 13:03:52 5.5 C 6.39 g/m*3 5.5 C 0 km/h
187 23-01-2009 13:15:52 5.4 C 6.35 g/m*3 5.4 C 0 km/h
188 23-01-2009 13:27:52 5.6 C 6.5 g/m*3 5.6 C 0 km/h
189 23-01-2009 13:39:52 5.6 C 6.5 g/m*3 5.6 C 0 km/h
190 23-01-2009 13:51:51 5.6 C 6.5 g/m*3 5.6 C 0 km/h
191 23-01-2009 14:03:52 5.7 C 6.62 g/m*3 5.7 C 0 km/h
192 23-01-2009 14:15:52 5.7 C 6.62 g/m*3 5.7 C 0 km/h
193 23-01-2009 14:27:52 5.5 C 6.53 g/m*3 5.5 C 0 km/h
194 23-01-2009 14:39:51 5.4 C 6.49 g/m*3 5.4 C 0 km/h
195 23-01-2009 14:51:52 5.9 C 6.78 g/m*3 5.9 C 0 km/h
196 23-01-2009 15:03:51 6.5 C 7.05 g/m*3 6.5 C 0 km/h
197 23-01-2009 15:15:51 6.5 C 7.12 g/m*3 6.5 C 0 km/h
198 23-01-2009 15:27:51 6.6 C 7.17 g/m*3 6.6 C 0 km/h
199 23-01-2009 15:39:50 6.5 C 7.05 g/m*3 6.5 C 0 km/h
200 23-01-2009 15:51:51 6.6 C 7.1 g/m*3 6.6 C 0 km/h
Sensor: Nr:Datum:Temp:Abs-Feuchte:Windchill:Wind:
Aussen-T/F 201 23-01-2009 16:03:50 6.7 C 7.14 g/m*3 6.7 C 0 km/h
202 23-01-2009 16:15:50 7.1 C 7.18 g/m*3 7.1 C 0 km/h
203 23-01-2009 16:27:50 7.3 C 7.11 g/m*3 7.3 C 0 km/h
204 23-01-2009 16:39:51 7.4 C 6.92 g/m*3 7.4 C 0 km/h
205 23-01-2009 16:51:50 7.3 C 6.56 g/m*3 7.3 C 0 km/h
206 23-01-2009 17:03:50 7.1 C 6.08 g/m*3 7.1 C 0 km/h
207 23-01-2009 17:15:50 7.2 C 5.81 g/m*3 7.2 C 0 km/h
208 23-01-2009 17:27:50 7 C 5.73 g/m*3 7 C 0 km/h
209 23-01-2009 17:39:50 6.9 C 5.77 g/m*3 6.9 C 0 km/h
210 23-01-2009 17:51:49 6.3 C 5.55 g/m*3 6.3 C 0 km/h
211 23-01-2009 18:03:50 6.2 C 5 g/m*3 6.2 C 0 km/h
212 23-01-2009 18:15:49 6 C 4.72 g/m*3 6 C 0 km/h
213 23-01-2009 18:27:49 5.9 C 4.69 g/m*3 5.9 C 0 km/h
214 23-01-2009 18:39:49 5.6 C 4.52 g/m*3 5.6 C 0 km/h
215 23-01-2009 18:51:49 5.2 C 4.27 g/m*3 5.2 C 0 km/h
216 23-01-2009 19:03:49 5 C 4.28 g/m*3 5 C 0 km/h
217 23-01-2009 19:15:49 4.8 C 4.43 g/m*3 4.8 C 0 km/h
218 23-01-2009 19:27:49 4.5 C 4.47 g/m*3 4.5 C 0 km/h
219 23-01-2009 19:39:48 4.3 C 4.61 g/m*3 4.3 C 0 km/h
220 23-01-2009 19:51:48 4 C 4.58 g/m*3 4 C 0 km/h
221 23-01-2009 20:03:48 3.8 C 4.77 g/m*3 3.8 C 0 km/h
222 23-01-2009 20:15:48 3.5 C 4.8 g/m*3 3.5 C 0 km/h
223 23-01-2009 20:27:48 3.3 C 4.91 g/m*3 3.3 C 0 km/h
224 23-01-2009 20:39:48 3.2 C 4.94 g/m*3 3.2 C 0 km/h
225 23-01-2009 20:51:48 3.3 C 5.04 g/m*3 3.3 C 0 km/h
Sensor: Nr:Datum:Temp:Abs-Feuchte:Windchill:Wind:
Aussen-T/F 226 23-01-2009 21:03:48 3.5 C 5.1 g/m*3 3.5 C 0 km/h
227 23-01-2009 21:15:47 3.5 C 4.98 g/m*3 3.5 C 0 km/h
228 23-01-2009 21:27:47 3.5 C 4.92 g/m*3 3.5 C 0 km/h
229 23-01-2009 21:39:48 3.8 C 4.89 g/m*3 3.8 C 0 km/h
230 23-01-2009 21:51:48 3.8 C 4.77 g/m*3 3.8 C 0 km/h
231 23-01-2009 22:03:47 3.8 C 4.77 g/m*3 3.8 C 0 km/h
232 23-01-2009 22:15:47 4 C 4.64 g/m*3 4 C 0 km/h
233 23-01-2009 22:27:47 4.1 C 4.61 g/m*3 4.1 C 0 km/h
234 23-01-2009 22:39:47 4 C 4.58 g/m*3 4 C 0 km/h
235 23-01-2009 22:51:47 4.1 C 4.61 g/m*3 4.1 C 0 km/h
236 23-01-2009 23:03:46 4.1 C 4.54 g/m*3 4.1 C 0 km/h
237 23-01-2009 23:15:47 4.1 C 4.54 g/m*3 4.1 C 0 km/h
238 23-01-2009 23:27:47 4.1 C 4.48 g/m*3 4.1 C 0 km/h
239 23-01-2009 23:39:46 4.2 C 4.45 g/m*3 4.2 C 0 km/h
240 23-01-2009 23:51:46 4.1 C 4.35 g/m*3 4.1 C 0 km/h
241 24-01-2009 00:03:46 4.2 C 4.25 g/m*3 4.2 C 0 km/h
242 24-01-2009 00:15:46 4.1 C 4.22 g/m*3 4.1 C 0 km/h
243 24-01-2009 00:27:46 4.2 C 4.12 g/m*3 4.2 C 0 km/h
244 24-01-2009 00:39:46 4.2 C 4.06 g/m*3 4.2 C 0 km/h
245 24-01-2009 00:51:45 4.2 C 4.06 g/m*3 4.2 C 0 km/h
246 24-01-2009 01:03:45 4.2 C 3.99 g/m*3 4.2 C 0 km/h
247 24-01-2009 01:15:46 4.2 C 3.99 g/m*3 4.2 C 0 km/h
248 24-01-2009 01:27:46 4.2 C 3.99 g/m*3 4.2 C 0 km/h
249 24-01-2009 01:39:45 4.2 C 3.93 g/m*3 4.2 C 0 km/h
250 24-01-2009 01:51:45 4.1 C 3.97 g/m*3 4.1 C 0 km/h
Sensor: Nr:Datum:Temp:Abs-Feuchte:Windchill:Wind:
Aussen-T/F 251 24-01-2009 02:03:45 4.1 C 3.97 g/m*3 4.1 C 0 km/h
252 24-01-2009 02:15:45 4 C 3.94 g/m*3 4 C 0 km/h
253 24-01-2009 02:27:45 3.8 C 4.08 g/m*3 3.8 C 0 km/h
254 24-01-2009 02:39:44 3.8 C 4.08 g/m*3 3.8 C 0 km/h
255 24-01-2009 02:52:46 3.9 C 4.17 g/m*3 3.9 C 0 km/h
256 24-01-2009 03:04:46 3.8 C 4.2 g/m*3 3.8 C 0 km/h
257 24-01-2009 03:16:46 3.6 C 4.27 g/m*3 3.6 C 0 km/h
258 24-01-2009 03:28:46 3.5 C 4.24 g/m*3 3.5 C 0 km/h
259 24-01-2009 03:40:46 3.5 C 4.3 g/m*3 3.5 C 0 km/h
260 24-01-2009 03:52:46 3.4 C 4.28 g/m*3 3.4 C 0 km/h
261 24-01-2009 04:04:45 3.3 C 4.25 g/m*3 3.3 C 0 km/h
262 24-01-2009 04:16:45 3.2 C 4.28 g/m*3 3.2 C 0 km/h
263 24-01-2009 04:28:45 2.8 C 4.22 g/m*3 2.8 C 0 km/h
264 24-01-2009 04:40:45 2.7 C 4.25 g/m*3 2.7 C 0 km/h
265 24-01-2009 04:52:45 2.7 C 4.2 g/m*3 2.7 C 0 km/h
266 24-01-2009 05:04:45 2.7 C 4.2 g/m*3 2.7 C 0 km/h
267 24-01-2009 05:16:45 2.8 C 4.16 g/m*3 2.8 C 0 km/h
268 24-01-2009 05:28:45 2.7 C 4.2 g/m*3 2.7 C 0 km/h
269 24-01-2009 05:40:44 2.7 C 4.2 g/m*3 2.7 C 0 km/h
270 24-01-2009 05:52:44 2.1 C 4.08 g/m*3 2.1 C 0 km/h
271 24-01-2009 06:04:44 1.8 C 4.17 g/m*3 1.8 C 0 km/h
272 24-01-2009 06:16:44 1.5 C 4.14 g/m*3 1.5 C 0 km/h
273 24-01-2009 06:28:44 1.6 C 4.27 g/m*3 1.6 C 0 km/h
274 24-01-2009 06:40:44 1.6 C 4.27 g/m*3 1.6 C 0 km/h
275 24-01-2009 06:52:43 1.4 C 4.21 g/m*3 1.4 C 0 km/h
Sensor: Nr:Datum:Temp:Abs-Feuchte:Windchill:Wind:
Aussen-T/F 276 24-01-2009 07:04:44 1 C 4.15 g/m*3 1 C 0 km/h
277 24-01-2009 07:16:44 0.8 C 4.2 g/m*3 0.8 C 0 km/h
278 24-01-2009 07:28:44 0.7 C 4.22 g/m*3 0.7 C 0 km/h
279 24-01-2009 07:40:43 0.7 C 4.27 g/m*3 0.7 C 0 km/h
280 24-01-2009 07:52:44 0.5 C 4.21 g/m*3 0.5 C 0 km/h
281 24-01-2009 08:04:43 0.5 C 4.26 g/m*3 0.5 C 0 km/h
282 24-01-2009 08:16:43 0.5 C 4.26 g/m*3 0.5 C 0 km/h
283 24-01-2009 08:28:43 0.6 C 4.29 g/m*3 0.6 C 0 km/h
284 24-01-2009 08:40:43 0.8 C 4.35 g/m*3 0.8 C 0 km/h
285 24-01-2009 08:52:43 0.8 C 4.35 g/m*3 0.8 C 0 km/h
286 24-01-2009 09:04:43 0.8 C 4.35 g/m*3 0.8 C 0 km/h
287 24-01-2009 09:16:43 0.9 C 4.38 g/m*3 0.9 C 0 km/h
288 24-01-2009 09:28:43 0.8 C 4.35 g/m*3 0.8 C 0 km/h
289 24-01-2009 09:40:42 0.7 C 4.32 g/m*3 0.7 C 0 km/h
290 24-01-2009 09:52:43 0.7 C 4.32 g/m*3 0.7 C 0 km/h
291 24-01-2009 10:04:42 0.7 C 4.37 g/m*3 0.7 C 0 km/h
292 24-01-2009 10:16:42 0.9 C 4.43 g/m*3 0.9 C 0 km/h
293 24-01-2009 10:28:42 1 C 4.46 g/m*3 1 C 0 km/h
294 24-01-2009 10:40:41 1.3 C 4.56 g/m*3 1.3 C 0 km/h
295 24-01-2009 10:52:42 1.4 C 4.59 g/m*3 1.4 C 0 km/h
296 24-01-2009 11:04:41 1.6 C 4.65 g/m*3 1.6 C 0 km/h
297 24-01-2009 11:16:41 1.9 C 4.69 g/m*3 1.9 C 0 km/h
298 24-01-2009 11:28:42 2.2 C 4.62 g/m*3 2.2 C 0 km/h
299 24-01-2009 11:40:41 2.4 C 4.45 g/m*3 2.4 C 0 km/h
300 24-01-2009 11:52:41 2.7 C 4.43 g/m*3 2.7 C 0 km/h
Sensor: Nr:Datum:Temp:Abs-Feuchte:Windchill:Wind:
Aussen-T/F 301 24-01-2009 12:04:41 3.1 C 4.37 g/m*3 3.1 C 0 km/h
302 24-01-2009 12:16:41 3.7 C 4.42 g/m*3 3.7 C 0 km/h
303 24-01-2009 12:28:41 4.4 C 4.24 g/m*3 4.4 C 0 km/h
304 24-01-2009 12:40:40 4.6 C 3.97 g/m*3 4.6 C 0 km/h
305 24-01-2009 12:52:41 4.6 C 3.9 g/m*3 4.6 C 0 km/h
306 24-01-2009 13:04:40 4.8 C 3.96 g/m*3 4.8 C 0 km/h
307 24-01-2009 13:16:40 5.3 C 3.95 g/m*3 5.3 C 0 km/h
308 24-01-2009 13:28:40 4.9 C 4.05 g/m*3 4.9 C 0 km/h
309 24-01-2009 13:40:40 4.7 C 4.06 g/m*3 4.7 C 0 km/h
310 24-01-2009 13:52:40 4.8 C 4.16 g/m*3 4.8 C 0 km/h
311 24-01-2009 14:04:40 4.7 C 4.13 g/m*3 4.7 C 0 km/h
312 24-01-2009 14:16:39 4.7 C 4.2 g/m*3 4.7 C 0 km/h
313 24-01-2009 14:28:39 4.6 C 4.1 g/m*3 4.6 C 0 km/h
314 24-01-2009 14:40:40 4.6 C 4.1 g/m*3 4.6 C 0 km/h
315 24-01-2009 14:52:39 4.7 C 4.2 g/m*3 4.7 C 0 km/h
316 24-01-2009 15:04:39 4.8 C 4.16 g/m*3 4.8 C 0 km/h
317 24-01-2009 15:16:40 5.1 C 4.17 g/m*3 5.1 C 0 km/h
318 24-01-2009 15:28:40 5.4 C 4.26 g/m*3 5.4 C 0 km/h
319 24-01-2009 15:40:40 5.4 C 3.84 g/m*3 5.4 C 0 km/h
320 24-01-2009 15:52:40 5.1 C 3.83 g/m*3 5.1 C 0 km/h
321 24-01-2009 16:04:42 4.9 C 3.92 g/m*3 4.9 C 0 km/h
322 24-01-2009 16:16:39 4.7 C 3.93 g/m*3 4.7 C 0 km/h
323 24-01-2009 16:28:39 4.6 C 4.04 g/m*3 4.6 C 0 km/h
324 24-01-2009 16:40:38 4.4 C 4.11 g/m*3 4.4 C 0 km/h
325 24-01-2009 16:52:04 4.3 C 4.15 g/m*3 4.3 C 0 km/h
Sensor: Nr:Datum:Temp:Abs-Feuchte:Windchill:Wind:
Aussen-T/F 326 24-01-2009 17:04:04 4.2 C 4.19 g/m*3 4.2 C 0 km/h
327 24-01-2009 17:16:01 4.1 C 4.22 g/m*3 4.1 C 0 km/h
328 24-01-2009 17:28:01 4 C 4.26 g/m*3 4 C 0 km/h
329 24-01-2009 17:40:02 4 C 4.32 g/m*3 4 C 0 km/h
330 24-01-2009 17:52:01 3.9 C 4.36 g/m*3 3.9 C 0 km/h
331 24-01-2009 18:04:01 3.9 C 4.42 g/m*3 3.9 C 0 km/h
332 24-01-2009 18:16:01 3.8 C 4.45 g/m*3 3.8 C 0 km/h
333 24-01-2009 18:28:01 3.8 C 4.45 g/m*3 3.8 C 0 km/h
334 24-01-2009 18:40:01 3.8 C 4.45 g/m*3 3.8 C 0 km/h
335 24-01-2009 18:52:00 3.8 C 4.45 g/m*3 3.8 C 0 km/h
336 24-01-2009 19:04:01 3.8 C 4.39 g/m*3 3.8 C 0 km/h
337 24-01-2009 19:16:00 3.7 C 4.42 g/m*3 3.7 C 0 km/h
338 24-01-2009 19:28:00 3.7 C 4.49 g/m*3 3.7 C 0 km/h
339 24-01-2009 19:40:00 3.6 C 4.46 g/m*3 3.6 C 0 km/h
340 24-01-2009 19:52:00 3.3 C 4.31 g/m*3 3.3 C 0 km/h
341 24-01-2009 20:04:00 3 C 4.34 g/m*3 3 C 0 km/h
342 24-01-2009 20:15:59 2.8 C 4.4 g/m*3 2.8 C 0 km/h
343 24-01-2009 20:27:59 3 C 4.46 g/m*3 3 C 0 km/h
344 24-01-2009 20:40:00 3.1 C 4.49 g/m*3 3.1 C 0 km/h
345 24-01-2009 20:52:59 3.2 C 4.46 g/m*3 3.2 C 0 km/h
346 24-01-2009 21:04:00 3.2 C 4.46 g/m*3 3.2 C 0 km/h
347 24-01-2009 21:16:59 3 C 4.4 g/m*3 3 C 0 km/h
348 24-01-2009 21:28:59 3.1 C 4.43 g/m*3 3.1 C 0 km/h
349 24-01-2009 21:40:59 3.2 C 4.4 g/m*3 3.2 C 0 km/h
350 24-01-2009 21:52:59 3.3 C 4.43 g/m*3 3.3 C 0 km/h
Sensor: Nr:Datum:Temp:Abs-Feuchte:Windchill:Wind:
Aussen-T/F 351 24-01-2009 22:05:00 3.2 C 4.4 g/m*3 3.2 C 0 km/h
352 24-01-2009 22:17:00 3 C 4.34 g/m*3 3 C 0 km/h
353 24-01-2009 22:29:00 3 C 4.4 g/m*3 3 C 0 km/h
354 24-01-2009 22:41:00 3 C 4.4 g/m*3 3 C 0 km/h
355 24-01-2009 22:53:00 3 C 4.4 g/m*3 3 C 0 km/h
356 24-01-2009 23:05:00 2.8 C 4.4 g/m*3 2.8 C 0 km/h
357 24-01-2009 23:17:00 2.8 C 4.46 g/m*3 2.8 C 0 km/h
358 24-01-2009 23:29:00 2.7 C 4.43 g/m*3 2.7 C 0 km/h
359 24-01-2009 23:41:00 2.6 C 4.4 g/m*3 2.6 C 0 km/h
360 24-01-2009 23:53:00 2.6 C 4.4 g/m*3 2.6 C 0 km/h

Legende:
   Min
   Max


Maximal/Minimal-Werte vom 22.01.2009 - 24.01.2009

Sensor Min Max Avg
Temp
(Aussen-T/F)
-0.6 °C
22-01-2009  07:26:33
7.4 °C
23-01-2009  16:39:51
3.43 °C
Abs-Feuchte
(Aussen-T/F)
2.91 g/m*3
22-01-2009  17:14:02
7.18 g/m*3
23-01-2009  16:15:50
4.48 g/m*3
Windchill
(Aussen-T/F)
-0.6 C
22-01-2009  07:26:33
7.4 C
23-01-2009  16:39:51
3.42 C

Die Daten stammen von einer Davis Vantage Pro 2 Wetter-Station und werden unter Linux mit der Software wview2wettercgi und aufbereitet. Alle Angaben erfolgen ohne Gewähr für ihre Vollständigkeit oder Richtigkeit.
Kontakt: Rainer Krienke krienke@uni-koblenz.de . Meine Webseiten an der Uni Koblenz oder privat.
Version: $Revision: 0.78 $